DW7915 Braunschweig DE current weather conditions

sailwx.info

Wind from 360 at 1 knots gusting 5

Air temperature 20.6° C
Dewpoint 10.6° C

Last reported at 2018-Jul-18 19:48 UTC.
Time now 2018-Jul-18 20:11 UTC

Location: N 52°19' E 010°33'.
View on Google Maps.

See reports from other nearby stations

  
Tides and Currents Weather Stations Pressure Air Temp Water Temp Dewpoint Dewpoint Depression Visibility Wind Speed Wind Dir Waves Ship Positions
date/time (UTC)wind fromknots sea level pressurealtimeterstation pressurevisibilityair tempwater tempwave heightnotes
2018-Jul-18 19:48 360 1 gusting 5 20.6
2018-Jul-18 19:43 360 1 gusting 5 20.6
2018-Jul-18 19:38 360 0 gusting 3 21.1
2018-Jul-18 19:33 330 1 gusting 5 21.1
2018-Jul-18 19:28 336 2 gusting 5 21.1
2018-Jul-18 19:23 360 2 gusting 5 21.7
2018-Jul-18 17:38 360 5 gusting 9 24.4
2018-Jul-18 17:33 360 3 gusting 7 24.4
2018-Jul-18 17:28 360 3 gusting 7 24.4
2018-Jul-18 17:23 360 2 gusting 8 24.4
2018-Jul-18 17:18 360 4 gusting 9 25.0
2018-Jul-18 17:13 360 4 gusting 9 25.0
2018-Jul-18 17:08 360 2 gusting 6 25.6
2018-Jul-18 17:03 360 2 gusting 8 25.6
2018-Jul-18 16:58 360 4 gusting 8 25.6
2018-Jul-18 16:53 360 3 gusting 8 25.6
2018-Jul-18 15:43 360 4 gusting 13 25.6
2018-Jul-18 15:38 360 6 gusting 13 25.6
2018-Jul-18 15:33 360 3 gusting 12 26.1
2018-Jul-18 15:28 360 5 gusting 12 25.6
2018-Jul-18 15:23 360 5 gusting 11 25.6
2018-Jul-18 15:18 360 3 gusting 9 26.1
2018-Jul-18 15:13 360 3 gusting 11 26.1
2018-Jul-18 15:08 360 4 gusting 11 26.1
2018-Jul-18 15:03 360 5 gusting 10 26.1
2018-Jul-18 14:58 360 2 gusting 10 26.1
2018-Jul-18 14:53 360 4 gusting 11 26.1
2018-Jul-18 14:48 360 3 gusting 10 26.1
2018-Jul-18 12:43 334 3 gusting 9 24.4
2018-Jul-18 12:38 355 5 gusting 13 24.4
2018-Jul-18 12:33 327 3 gusting 10 24.4
2018-Jul-18 12:28 288 4 gusting 10 24.4
2018-Jul-18 12:23 340 4 gusting 11 24.4
2018-Jul-18 12:18 329 5 gusting 11 23.9
2018-Jul-18 12:13 343 3 gusting 9 23.3
2018-Jul-18 12:08 360 3 gusting 8 23.3
2018-Jul-18 11:43 312 3 gusting 9 23.3
2018-Jul-18 11:38 311 5 gusting 9 23.3
2018-Jul-18 11:33 267 4 gusting 9 23.3
2018-Jul-18 11:28 316 3 gusting 9 23.3
2018-Jul-18 11:23 337 3 gusting 10 23.3
2018-Jul-18 10:43 296 5 gusting 11 23.3
2018-Jul-18 10:38 309 5 gusting 10 22.8
2018-Jul-18 10:33 360 4 gusting 11 22.8
2018-Jul-18 10:28 325 5 gusting 11 22.2
2018-Jul-18 10:23 319 4 gusting 10 22.8
2018-Jul-18 10:18 309 5 gusting 10 22.8
2018-Jul-18 10:13 360 2 gusting 10 22.2
2018-Jul-18 10:08 360 3 gusting 11 22.2
2018-Jul-18 10:03 360 5 gusting 11 22.2
2018-Jul-18 09:58 360 2 gusting 7 22.2
2018-Jul-18 09:53 360 3 gusting 10 21.7
2018-Jul-18 09:48 360 4 gusting 12 21.7
2018-Jul-18 09:43 360 6 gusting 12 22.2
2018-Jul-18 09:38 360 3 gusting 8 22.2
2018-Jul-18 09:33 360 4 gusting 8 21.7
2018-Jul-18 09:28 360 4 gusting 8 21.1
2018-Jul-18 07:23 326 3 gusting 7 18.9
2018-Jul-18 07:18 360 3 gusting 7 18.9
2018-Jul-18 07:13 315 3 gusting 8 18.3
2018-Jul-18 07:08 360 2 gusting 5 18.3
2018-Jul-18 07:03 360 2 gusting 7 17.8
2018-Jul-18 06:58 360 2 gusting 7 17.8
2018-Jul-18 06:53 360 3 gusting 5 17.8
2018-Jul-18 06:33 360 4 gusting 9 17.8
2018-Jul-18 06:28 360 3 gusting 7 17.8
2018-Jul-18 06:23 360 4 gusting 7 17.2
2018-Jul-18 06:18 360 3 gusting 6 17.2
2018-Jul-18 06:13 329 3 gusting 7 17.2
2018-Jul-17 20:23 360 23.9
2018-Jul-17 19:28 360 0 gusting 2 26.1
2018-Jul-17 19:23 360 0 gusting 2 26.1
2018-Jul-17 19:18 360 0 gusting 2 26.1
2018-Jul-17 19:13 360 0 gusting 2 26.1
2018-Jul-17 19:08 360 0 gusting 1 26.7
2018-Jul-17 19:03 360 0 gusting 1 26.7
2018-Jul-17 18:28 360 1 gusting 3 27.8
2018-Jul-17 18:23 360 1 gusting 3 27.8
2018-Jul-17 18:18 360 1 gusting 5 28.3
2018-Jul-17 18:13 360 2 gusting 5 28.3
2018-Jul-17 18:08 360 2 gusting 4 28.9
2018-Jul-17 18:03 360 1 gusting 5 28.9
2018-Jul-17 17:58 331 2 gusting 5 29.4
2018-Jul-17 17:53 355 2 gusting 5 29.4
2018-Jul-17 17:48 340 2 gusting 6 29.4
2018-Jul-17 17:43 326 2 gusting 6 29.4
2018-Jul-17 17:38 325 2 gusting 6 29.4
2018-Jul-17 17:33 329 2 gusting 8 30.0
2018-Jul-17 17:28 334 4 gusting 8 30.0
2018-Jul-17 16:28 334 4 gusting 8 30.6
2018-Jul-17 16:23 315 5 gusting 8 30.6
2018-Jul-17 16:13 324 4 gusting 9 31.1
2018-Jul-17 15:48 298 2 gusting 8 31.1
2018-Jul-17 15:43 325 4 gusting 7 31.1
2018-Jul-17 15:38 321 3 gusting 7 31.7
2018-Jul-17 15:33 349 3 gusting 7 31.1
2018-Jul-17 15:28 329 2 gusting 8 31.1
2018-Jul-17 15:23 315 4 gusting 11 31.1
2018-Jul-17 15:18 344 6 gusting 11 31.1
2018-Jul-17 15:13 317 5 gusting 9 31.1
2018-Jul-17 15:08 344 2 gusting 11 31.1
2018-Jul-17 15:03 326 5 gusting 11 31.1
2018-Jul-17 14:58 288 5 gusting 9 31.7
2018-Jul-17 14:53 326 4 gusting 9 31.1
2018-Jul-17 12:13 304 2 gusting 7 30.6
2018-Jul-17 12:08 333 2 gusting 7 30.6
2018-Jul-17 12:03 321 1 gusting 9 30.6
2018-Jul-17 11:58 317 2 gusting 9 30.6
2018-Jul-17 11:53 331 2 gusting 6 31.1
2018-Jul-17 11:48 273 3 gusting 6 31.1
2018-Jul-17 11:43 340 2 gusting 6 31.1
2018-Jul-17 11:38 329 2 gusting 5 31.1
2018-Jul-17 10:58 304 3 gusting 5 30.0
2018-Jul-17 10:53 329 1 gusting 6 30.0
2018-Jul-17 10:48 351 2 gusting 6 30.0
2018-Jul-17 10:43 298 2 gusting 6 30.0
2018-Jul-17 10:38 316 2 gusting 5 29.4
2018-Jul-17 10:33 338 0 gusting 4 29.4
2018-Jul-17 10:28 015 1 gusting 4 29.4
2018-Jul-17 10:23 273 1 gusting 4 29.4
2018-Jul-17 10:18 168 1 gusting 7 29.4
2018-Jul-17 10:13 319 3 gusting 6 29.4
2018-Jul-17 10:08 191 2 gusting 7 28.9
2018-Jul-17 10:03 335 1 gusting 7 29.4
2018-Jul-17 09:58 236 1 gusting 5 29.4
2018-Jul-17 09:53 184 1 gusting 6 29.4
2018-Jul-17 09:48 331 2 gusting 6 28.9
2018-Jul-17 09:43 325 1 gusting 5 28.9
2018-Jul-17 09:38 355 1 gusting 6 28.9
2018-Jul-17 09:13 327 2 gusting 3 27.8
2018-Jul-17 09:08 025 0 gusting 4 27.8
2018-Jul-17 09:03 225 1 gusting 4 27.8
2018-Jul-17 08:58 252 1 gusting 3 27.8
2018-Jul-17 08:53 331 1 gusting 4 27.2
2018-Jul-17 08:48 289 1 gusting 4 27.2
2018-Jul-17 08:43 325 1 gusting 4 27.2
2018-Jul-17 08:38 324 1 gusting 4 26.7
2018-Jul-17 08:33 251 0 gusting 4 26.7
2018-Jul-17 08:28 288 1 gusting 4 26.1
2018-Jul-17 08:23 274 2 gusting 4 26.1
2018-Jul-17 08:18 333 1 gusting 4 26.1
2018-Jul-17 08:13 340 1 gusting 4 25.6
2018-Jul-17 08:08 250 25.6
2018-Jul-17 08:03 337 25.0
2018-Jul-17 07:18 360 23.3
2018-Jul-17 07:13 360 23.3
2018-Jul-17 05:38 349 16.7
2018-Jul-17 05:33 360 16.7
2018-Jul-17 05:28 355 16.1
2018-Jul-16 20:53 360 21.1
2018-Jul-16 20:48 360 0 gusting 2 21.1
2018-Jul-16 20:43 360 1 gusting 2 21.7
2018-Jul-16 20:38 360 22.2
2018-Jul-16 20:33 360 22.2
2018-Jul-16 20:28 360 22.2
2018-Jul-16 20:23 360 22.8
2018-Jul-16 20:18 360 22.8
2018-Jul-16 20:08 360 23.3
2018-Jul-16 20:03 360 23.3